createdAt,value
2017-11-25T00:01:25.289Z,8.40
2017-11-25T00:03:52.754Z,8.40
2017-11-25T00:06:20.269Z,8.30
2017-11-25T00:08:47.716Z,8.40
2017-11-25T00:11:15.190Z,8.30
2017-11-25T00:13:42.650Z,8.30
2017-11-25T00:16:10.110Z,8.20
2017-11-25T00:18:37.582Z,8.20
2017-11-25T00:21:05.047Z,8.20
2017-11-25T00:23:32.601Z,8.20
2017-11-25T00:26:00.061Z,8.30
2017-11-25T00:28:27.537Z,8.40
2017-11-25T00:30:54.995Z,8.50
2017-11-25T00:33:22.471Z,8.50
2017-11-25T00:35:50.701Z,8.60
2017-11-25T00:38:18.192Z,8.60
2017-11-25T00:40:46.418Z,8.70
2017-11-25T00:43:13.883Z,8.70
2017-11-25T00:45:41.349Z,8.80
2017-11-25T00:48:08.818Z,8.70
2017-11-25T00:50:36.348Z,8.70
2017-11-25T00:53:03.811Z,8.70
2017-11-25T00:55:31.280Z,8.50
2017-11-25T00:57:58.762Z,8.40
2017-11-25T01:00:26.684Z,8.20
2017-11-25T01:02:54.136Z,8.10
2017-11-25T01:05:21.593Z,7.90
2017-11-25T01:07:49.056Z,7.80
2017-11-25T01:10:16.513Z,7.60
2017-11-25T01:12:43.979Z,7.70
2017-11-25T01:15:11.452Z,7.50
2017-11-25T01:17:38.917Z,7.50
2017-11-25T01:20:06.415Z,7.40
2017-11-25T01:22:33.865Z,7.40
2017-11-25T01:25:01.320Z,7.30
2017-11-25T01:27:29.565Z,7.20
2017-11-25T01:29:57.050Z,7.20
2017-11-25T01:32:24.522Z,7.10
2017-11-25T01:34:52.091Z,7.20
2017-11-25T01:37:19.552Z,6.90
2017-11-25T01:39:47.211Z,6.90
2017-11-25T01:42:14.665Z,6.90
2017-11-25T01:44:42.134Z,6.80
2017-11-25T01:47:09.593Z,6.80
2017-11-25T01:49:37.073Z,6.80
2017-11-25T01:52:04.529Z,7.00
2017-11-25T01:54:32.025Z,7.10
2017-11-25T01:57:00.291Z,6.90
2017-11-25T01:59:28.634Z,6.80
2017-11-25T02:01:56.098Z,6.80
2017-11-25T02:04:23.552Z,6.80
2017-11-25T02:06:51.019Z,6.80
2017-11-25T02:09:18.491Z,6.70
2017-11-25T02:11:46.713Z,6.70
2017-11-25T02:14:14.290Z,6.70
2017-11-25T02:16:41.755Z,6.70
2017-11-25T02:19:09.215Z,6.60
2017-11-25T02:21:36.726Z,6.50
2017-11-25T02:24:04.236Z,6.50
2017-11-25T02:26:31.692Z,6.50
2017-11-25T02:28:59.148Z,6.60
2017-11-25T02:31:26.604Z,6.60
2017-11-25T02:33:54.088Z,6.60
2017-11-25T02:36:22.312Z,6.60
2017-11-25T02:38:49.758Z,6.60
2017-11-25T02:41:17.223Z,6.60
2017-11-25T02:43:44.689Z,6.50
2017-11-25T02:46:12.185Z,6.30
2017-11-25T02:48:40.416Z,6.30
2017-11-25T02:51:07.878Z,6.30
2017-11-25T02:53:35.339Z,6.50
2017-11-25T02:56:02.814Z,6.60
2017-11-25T02:58:30.773Z,6.40
2017-11-25T03:00:58.214Z,6.40
2017-11-25T03:03:25.676Z,6.40
2017-11-25T03:05:53.141Z,6.50
2017-11-25T03:08:20.625Z,6.40
2017-11-25T03:10:48.910Z,6.30
2017-11-25T03:13:17.141Z,6.20
2017-11-25T03:15:44.620Z,6.30
2017-11-25T03:18:12.081Z,6.30
2017-11-25T03:20:39.541Z,6.20
2017-11-25T03:23:07.774Z,6.30
2017-11-25T03:25:35.234Z,6.30
2017-11-25T03:28:02.709Z,6.40
2017-11-25T03:30:31.692Z,6.40
2017-11-25T03:32:59.190Z,6.40
2017-11-25T03:35:27.426Z,6.40
2017-11-25T03:37:54.901Z,6.30
2017-11-25T03:40:22.465Z,6.40
2017-11-25T03:42:49.925Z,6.50
2017-11-25T03:45:17.382Z,6.50
2017-11-25T03:47:45.610Z,6.50
2017-11-25T03:50:13.080Z,6.50
2017-11-25T03:52:40.521Z,6.60
2017-11-25T03:55:07.994Z,6.60
2017-11-25T03:57:35.477Z,6.50
2017-11-25T04:00:02.969Z,6.50
2017-11-25T04:02:30.448Z,6.60
2017-11-25T04:04:57.897Z,6.50
2017-11-25T04:10:00.004Z,6.60
2017-11-25T04:12:27.477Z,6.60
2017-11-25T04:14:55.940Z,6.60
2017-11-25T04:17:23.378Z,6.70
2017-11-25T04:19:50.853Z,6.60
2017-11-25T04:22:18.311Z,6.70
2017-11-25T04:24:45.830Z,6.50
2017-11-25T04:27:13.330Z,6.60
2017-11-25T04:29:40.912Z,6.50
2017-11-25T04:32:08.371Z,6.60
2017-11-25T04:34:35.856Z,6.70
2017-11-25T04:37:03.329Z,6.70
2017-11-25T04:39:30.799Z,6.80
2017-11-25T04:41:58.266Z,6.80
2017-11-25T04:44:25.747Z,6.70
2017-11-25T04:46:53.991Z,6.70
2017-11-25T04:49:21.438Z,6.70
2017-11-25T04:51:49.831Z,6.70
2017-11-25T04:54:17.279Z,6.70
2017-11-25T04:56:44.741Z,6.70
2017-11-25T04:59:12.209Z,6.70
2017-11-25T05:01:39.690Z,6.70
2017-11-25T05:04:07.151Z,6.60
2017-11-25T05:06:34.694Z,6.70
2017-11-25T05:09:02.368Z,6.70
2017-11-25T05:11:29.818Z,6.70
2017-11-25T05:13:57.280Z,6.80
2017-11-25T05:16:24.811Z,6.80
2017-11-25T05:18:52.257Z,6.80
2017-11-25T05:21:19.713Z,6.80
2017-11-25T05:23:47.182Z,6.80
2017-11-25T05:26:14.644Z,6.70
2017-11-25T05:28:42.112Z,6.80
2017-11-25T05:31:09.568Z,6.80
2017-11-25T05:33:37.038Z,6.80
2017-11-25T05:36:04.514Z,6.70
2017-11-25T05:38:32.729Z,6.80
2017-11-25T05:41:00.225Z,6.80
2017-11-25T05:43:27.680Z,6.80
2017-11-25T05:45:55.169Z,6.80
2017-11-25T05:48:22.641Z,6.80
2017-11-25T05:50:50.094Z,6.70
2017-11-25T05:53:17.560Z,6.80
2017-11-25T05:55:45.190Z,6.70
2017-11-25T05:58:13.417Z,6.70
2017-11-25T06:00:41.049Z,6.70
2017-11-25T06:03:08.521Z,6.60
2017-11-25T06:05:36.261Z,6.60
2017-11-25T06:08:03.833Z,6.70
2017-11-25T06:10:31.291Z,6.70
2017-11-25T06:12:58.746Z,6.70
2017-11-25T06:15:26.206Z,6.60
2017-11-25T06:17:53.977Z,6.60
2017-11-25T06:20:22.397Z,6.60
2017-11-25T06:22:50.649Z,6.60
2017-11-25T06:25:18.114Z,6.60
2017-11-25T06:27:45.609Z,6.60
2017-11-25T06:30:13.848Z,6.50
2017-11-25T06:32:41.927Z,6.50
2017-11-25T06:35:09.378Z,6.60
2017-11-25T06:37:36.909Z,6.50
2017-11-25T06:40:04.386Z,6.40
2017-11-25T06:42:31.870Z,6.40
2017-11-25T06:45:00.139Z,6.40
2017-11-25T06:47:27.602Z,6.40
2017-11-25T06:49:56.131Z,6.60
2017-11-25T06:52:23.621Z,6.60
2017-11-25T06:54:51.066Z,6.60
2017-11-25T06:57:18.537Z,6.70
2017-11-25T06:59:46.002Z,6.70
2017-11-25T07:02:13.452Z,6.70
2017-11-25T07:04:41.211Z,6.70
2017-11-25T07:07:08.666Z,6.70
2017-11-25T07:09:36.109Z,6.70
2017-11-25T07:14:37.509Z,6.80
2017-11-25T07:17:05.085Z,6.80
2017-11-25T07:19:33.324Z,6.90
2017-11-25T07:22:00.789Z,6.80
2017-11-25T07:24:28.258Z,7.00
2017-11-25T07:26:56.486Z,6.90
2017-11-25T07:29:23.961Z,6.90
2017-11-25T07:31:51.413Z,6.80
2017-11-25T07:34:18.993Z,6.80
2017-11-25T07:36:46.466Z,6.70
2017-11-25T07:39:14.839Z,6.70
2017-11-25T07:41:42.297Z,6.70
2017-11-25T07:44:10.518Z,6.80
2017-11-25T07:46:38.000Z,6.80
2017-11-25T07:49:05.584Z,6.70
2017-11-25T07:51:33.045Z,6.70
2017-11-25T07:54:01.269Z,6.80
2017-11-25T07:56:28.722Z,6.70
2017-11-25T07:58:56.178Z,6.80
2017-11-25T08:01:23.646Z,6.80
2017-11-25T08:03:51.101Z,6.80
2017-11-25T08:06:18.567Z,6.70
2017-11-25T08:08:46.038Z,6.80
2017-11-25T08:11:13.522Z,6.80
2017-11-25T08:13:41.769Z,6.80
2017-11-25T08:16:09.221Z,6.80
2017-11-25T08:18:36.690Z,6.70
2017-11-25T08:21:04.190Z,6.80
2017-11-25T08:23:31.729Z,6.70
2017-11-25T08:25:59.974Z,6.80
2017-11-25T08:28:27.449Z,6.80
2017-11-25T08:30:55.022Z,6.80
2017-11-25T08:33:23.238Z,6.80
2017-11-25T08:35:50.700Z,6.80
2017-11-25T08:38:18.801Z,6.70
2017-11-25T08:40:46.251Z,6.70
2017-11-25T08:43:15.221Z,6.70
2017-11-25T08:45:42.729Z,6.70
2017-11-25T08:48:10.978Z,6.70
2017-11-25T08:50:38.431Z,6.70
2017-11-25T08:53:05.893Z,6.70
2017-11-25T08:55:33.350Z,6.70
2017-11-25T08:58:00.830Z,6.70
2017-11-25T09:00:29.059Z,6.70
2017-11-25T09:02:56.525Z,6.70
2017-11-25T09:05:24.009Z,6.80
2017-11-25T09:07:51.513Z,6.90
2017-11-25T09:10:18.969Z,6.90
2017-11-25T09:12:46.429Z,6.80
2017-11-25T09:15:13.876Z,6.80
2017-11-25T09:17:41.348Z,6.80
2017-11-25T09:20:09.293Z,6.80
2017-11-25T09:22:36.741Z,6.90
2017-11-25T09:25:04.201Z,6.80
2017-11-25T09:27:31.672Z,6.80
2017-11-25T09:29:59.113Z,6.70
2017-11-25T09:32:26.585Z,6.70
2017-11-25T09:34:54.047Z,6.70
2017-11-25T09:37:21.648Z,6.70
2017-11-25T09:39:49.102Z,6.70
2017-11-25T09:42:17.331Z,6.80
2017-11-25T09:44:44.784Z,6.80
2017-11-25T09:47:12.281Z,6.90
2017-11-25T09:49:39.770Z,6.90
2017-11-25T09:52:11.185Z,6.90
2017-11-25T09:54:38.657Z,6.90
2017-11-25T09:57:06.128Z,6.80
2017-11-25T09:59:33.594Z,6.80
2017-11-25T10:02:01.881Z,6.90
2017-11-25T10:04:30.128Z,6.90
2017-11-25T10:06:57.595Z,6.90
2017-11-25T10:09:25.835Z,6.80
2017-11-25T10:11:53.296Z,6.80
2017-11-25T10:14:20.768Z,6.70
2017-11-25T10:16:48.218Z,6.80
2017-11-25T10:19:15.670Z,6.70
2017-11-25T10:21:43.237Z,6.70
2017-11-25T10:24:10.910Z,6.80
2017-11-25T10:26:38.385Z,6.90
2017-11-25T10:29:06.730Z,6.90
2017-11-25T10:31:34.200Z,6.90
2017-11-25T10:34:01.643Z,6.90
2017-11-25T10:36:29.185Z,6.90
2017-11-25T10:38:56.641Z,7.10
2017-11-25T10:41:24.113Z,7.00
2017-11-25T10:43:51.575Z,7.10
2017-11-25T10:46:19.045Z,7.10
2017-11-25T10:48:48.005Z,7.00
2017-11-25T10:51:15.653Z,7.00
2017-11-25T10:53:43.117Z,7.20
2017-11-25T10:56:10.587Z,7.10
2017-11-25T10:58:38.056Z,7.20
2017-11-25T11:01:05.546Z,7.30
2017-11-25T11:03:33.809Z,7.60
2017-11-25T11:06:02.084Z,7.60
2017-11-25T11:08:30.423Z,7.60
2017-11-25T11:10:58.085Z,7.60
2017-11-25T11:13:25.595Z,7.80
2017-11-25T11:15:53.955Z,7.90
2017-11-25T11:18:21.468Z,7.90
2017-11-25T11:20:48.950Z,7.90
2017-11-25T11:23:16.439Z,8.00
2017-11-25T11:25:44.832Z,8.10
2017-11-25T11:28:12.337Z,8.10
2017-11-25T11:30:39.926Z,8.20
2017-11-25T11:33:08.675Z,8.20
2017-11-25T11:35:36.476Z,8.20
2017-11-25T11:38:04.195Z,8.20
2017-11-25T11:40:31.903Z,8.20
2017-11-25T11:43:00.263Z,8.10
2017-11-25T11:45:28.456Z,8.10
2017-11-25T11:47:57.180Z,8.10
2017-11-25T11:50:24.692Z,8.10
2017-11-25T11:52:52.617Z,8.00
2017-11-25T11:55:20.307Z,8.00
2017-11-25T11:57:47.771Z,7.90
2017-11-25T12:00:15.245Z,7.90
2017-11-25T12:02:43.488Z,8.00
2017-11-25T12:05:11.707Z,8.00
2017-11-25T12:07:40.126Z,8.00
2017-11-25T12:10:07.848Z,8.00
2017-11-25T12:12:35.955Z,7.90
2017-11-25T12:15:04.541Z,7.90
2017-11-25T12:17:32.761Z,7.80
2017-11-25T12:20:01.041Z,7.70
2017-11-25T12:22:30.367Z,7.80
2017-11-25T12:24:57.844Z,7.70
2017-11-25T12:27:25.469Z,8.00
2017-11-25T12:29:53.748Z,8.10
2017-11-25T12:32:21.257Z,8.10
2017-11-25T12:34:48.736Z,8.00
2017-11-25T12:37:16.205Z,8.00
2017-11-25T12:39:44.646Z,7.80
2017-11-25T12:42:12.115Z,7.80
2017-11-25T12:44:39.587Z,7.80
2017-11-25T12:47:07.059Z,7.60
2017-11-25T12:49:35.310Z,7.70
2017-11-25T12:52:02.772Z,7.70
2017-11-25T12:54:30.239Z,7.70
2017-11-25T12:56:57.690Z,7.70
2017-11-25T12:59:25.173Z,7.60
2017-11-25T13:01:53.401Z,7.70
2017-11-25T13:04:20.872Z,7.60
2017-11-25T13:06:49.076Z,7.70
2017-11-25T13:09:17.285Z,7.70
2017-11-25T13:11:44.764Z,7.70
2017-11-25T13:14:12.222Z,7.80
2017-11-25T13:16:39.761Z,7.80
2017-11-25T13:19:07.241Z,7.80
2017-11-25T13:21:34.716Z,7.70
2017-11-25T13:24:02.167Z,7.60
2017-11-25T13:26:29.619Z,7.60
2017-11-25T13:28:57.094Z,7.70
2017-11-25T13:31:25.310Z,7.60
2017-11-25T13:33:52.787Z,7.60
2017-11-25T13:36:20.258Z,7.60
2017-11-25T13:38:47.718Z,7.60
2017-11-25T13:41:15.171Z,7.60
2017-11-25T13:43:42.721Z,7.70
2017-11-25T13:46:10.183Z,7.70
2017-11-25T13:48:37.646Z,7.70
2017-11-25T13:51:05.109Z,7.70
2017-11-25T13:53:32.657Z,7.60
2017-11-25T13:56:00.145Z,7.60
2017-11-25T13:58:28.728Z,7.40
2017-11-25T14:00:56.977Z,7.30
2017-11-25T14:03:24.944Z,7.30
2017-11-25T14:05:52.417Z,7.30
2017-11-25T14:08:19.874Z,7.30
2017-11-25T14:10:48.118Z,7.30
2017-11-25T14:13:15.770Z,7.30
2017-11-25T14:15:43.256Z,7.30
2017-11-25T14:18:10.774Z,7.30
2017-11-25T14:20:38.374Z,7.30
2017-11-25T14:23:06.128Z,7.20
2017-11-25T14:25:33.604Z,7.20
2017-11-25T14:28:01.242Z,7.20
2017-11-25T14:30:28.731Z,7.20
2017-11-25T14:32:56.976Z,7.10
2017-11-25T14:35:24.940Z,7.10
2017-11-25T14:37:52.417Z,7.10
2017-11-25T14:40:19.887Z,7.10
2017-11-25T14:42:47.338Z,7.00
2017-11-25T14:45:15.566Z,7.00
2017-11-25T14:47:43.162Z,7.00
2017-11-25T14:50:10.617Z,7.00
2017-11-25T14:52:38.196Z,7.10
2017-11-25T14:55:06.426Z,7.10
2017-11-25T14:57:33.892Z,7.10
2017-11-25T15:00:01.377Z,7.10
2017-11-25T15:02:28.876Z,7.10
2017-11-25T15:04:56.335Z,7.20
2017-11-25T15:07:23.794Z,7.10
2017-11-25T15:09:51.404Z,7.10
2017-11-25T15:12:18.922Z,7.10
2017-11-25T15:14:46.381Z,7.10
2017-11-25T15:17:13.853Z,7.10
2017-11-25T15:19:41.379Z,7.00
2017-11-25T15:22:08.891Z,7.00
2017-11-25T15:24:36.550Z,7.10
2017-11-25T15:27:04.013Z,7.10
2017-11-25T15:29:31.508Z,7.10
2017-11-25T15:31:59.179Z,7.00
2017-11-25T15:34:26.938Z,7.10
2017-11-25T15:36:54.525Z,7.00
2017-11-25T15:39:22.681Z,7.00
2017-11-25T15:41:50.138Z,7.00
2017-11-25T15:44:17.709Z,7.00
2017-11-25T15:46:45.683Z,7.00
2017-11-25T15:49:13.319Z,7.10
2017-11-25T15:51:40.786Z,7.10
2017-11-25T15:54:08.549Z,7.10
2017-11-25T15:56:36.022Z,7.10
2017-11-25T15:59:03.519Z,7.20
2017-11-25T16:01:31.754Z,7.20
2017-11-25T16:03:59.253Z,7.20
2017-11-25T16:06:27.484Z,7.20
2017-11-25T16:08:55.047Z,7.10
2017-11-25T16:11:22.499Z,7.20
2017-11-25T16:13:49.995Z,7.10
2017-11-25T16:16:18.370Z,7.00
2017-11-25T16:18:46.653Z,7.00
2017-11-25T16:21:14.902Z,7.00
2017-11-25T16:23:42.389Z,6.90
2017-11-25T16:26:10.781Z,7.00
2017-11-25T16:28:38.274Z,7.00
2017-11-25T16:31:05.734Z,7.00
2017-11-25T16:33:33.205Z,6.90
2017-11-25T16:36:00.665Z,6.90
2017-11-25T16:38:28.121Z,6.80
2017-11-25T16:40:55.585Z,6.70
2017-11-25T16:43:23.033Z,6.60
2017-11-25T16:45:50.502Z,6.60
2017-11-25T16:48:17.962Z,6.70
2017-11-25T16:50:45.429Z,6.60
2017-11-25T16:53:13.670Z,6.50
2017-11-25T16:55:41.120Z,6.50
2017-11-25T16:58:08.593Z,6.60
2017-11-25T17:00:36.053Z,6.60
2017-11-25T17:03:03.517Z,6.50
2017-11-25T17:05:30.974Z,6.50
2017-11-25T17:07:58.439Z,6.40
2017-11-25T17:10:25.899Z,6.40
2017-11-25T17:12:53.356Z,6.30
2017-11-25T17:15:21.578Z,6.30
2017-11-25T17:17:49.041Z,6.30
2017-11-25T17:20:16.489Z,6.20
2017-11-25T17:22:44.057Z,6.20
2017-11-25T17:25:11.512Z,6.20
2017-11-25T17:27:39.175Z,6.10
2017-11-25T17:30:06.626Z,6.20
2017-11-25T17:32:34.094Z,6.20
2017-11-25T17:35:01.567Z,6.10
2017-11-25T17:37:29.023Z,6.10
2017-11-25T17:39:56.489Z,6.00
2017-11-25T17:42:23.969Z,5.90
2017-11-25T17:44:52.211Z,5.90
2017-11-25T17:47:19.665Z,5.90
2017-11-25T17:49:47.129Z,5.90
2017-11-25T17:52:14.599Z,5.70
2017-11-25T17:54:42.067Z,5.80
2017-11-25T17:57:10.288Z,5.70
2017-11-25T17:59:37.766Z,5.70
2017-11-25T18:02:05.297Z,5.60
2017-11-25T18:04:32.762Z,5.70
2017-11-25T18:07:00.214Z,5.50
2017-11-25T18:09:27.681Z,5.60
2017-11-25T18:11:55.159Z,5.60
2017-11-25T18:14:22.634Z,5.60
2017-11-25T18:16:50.865Z,5.50
2017-11-25T18:19:18.322Z,5.40
2017-11-25T18:21:45.805Z,5.20
2017-11-25T18:24:13.265Z,5.20
2017-11-25T18:26:40.790Z,5.20
2017-11-25T18:29:08.438Z,5.20
2017-11-25T18:31:35.949Z,5.30
2017-11-25T18:34:03.432Z,5.20
2017-11-25T18:36:31.959Z,5.10
2017-11-25T18:38:59.431Z,5.10
2017-11-25T18:41:26.910Z,5.10
2017-11-25T18:43:54.359Z,5.00
2017-11-25T18:46:21.924Z,5.00
2017-11-25T18:48:50.141Z,4.90
2017-11-25T18:51:17.685Z,4.90
2017-11-25T18:53:45.278Z,4.90
2017-11-25T18:56:12.746Z,4.80
2017-11-25T18:58:40.240Z,4.80
2017-11-25T19:01:08.558Z,4.80
2017-11-25T19:03:36.183Z,4.80
2017-11-25T19:06:04.478Z,4.80
2017-11-25T19:08:32.007Z,4.80
2017-11-25T19:11:00.876Z,4.70
2017-11-25T19:13:28.560Z,4.70
2017-11-25T19:15:56.883Z,4.70
2017-11-25T19:18:24.512Z,4.60
2017-11-25T19:20:52.009Z,4.60
2017-11-25T19:23:19.478Z,4.60
2017-11-25T19:25:46.940Z,4.70
2017-11-25T19:28:14.605Z,4.70
2017-11-25T19:30:43.010Z,4.60
2017-11-25T19:33:10.590Z,4.60
2017-11-25T19:35:38.274Z,4.50
2017-11-25T19:38:05.933Z,4.50
2017-11-25T19:40:33.633Z,4.50
2017-11-25T19:43:01.099Z,4.40
2017-11-25T19:45:28.570Z,4.40
2017-11-25T19:47:56.988Z,4.50
2017-11-25T19:50:26.408Z,4.50
2017-11-25T19:52:54.850Z,4.50
2017-11-25T19:55:22.307Z,4.50
2017-11-25T19:57:49.782Z,4.50
2017-11-25T20:00:17.239Z,4.50
2017-11-25T20:02:44.711Z,4.50
2017-11-25T20:05:12.186Z,4.40
2017-11-25T20:07:39.683Z,4.40
2017-11-25T20:10:07.950Z,4.20
2017-11-25T20:12:36.275Z,4.20
2017-11-25T20:15:03.759Z,4.20
2017-11-25T20:17:31.255Z,4.20
2017-11-25T20:19:58.853Z,4.20
2017-11-25T20:22:26.361Z,4.20
2017-11-25T20:24:54.835Z,4.30
2017-11-25T20:27:23.057Z,4.30
2017-11-25T20:29:50.536Z,4.30
2017-11-25T20:32:18.182Z,4.40
2017-11-25T20:34:45.686Z,4.30
2017-11-25T20:37:13.135Z,4.40
2017-11-25T20:39:41.435Z,4.40
2017-11-25T20:42:08.913Z,4.40
2017-11-25T20:44:36.473Z,4.50
2017-11-25T20:47:03.953Z,4.50
2017-11-25T20:49:32.953Z,4.60
2017-11-25T20:52:00.743Z,4.60
2017-11-25T20:54:28.488Z,4.60
2017-11-25T20:56:56.041Z,4.60
2017-11-25T20:59:23.514Z,4.70
2017-11-25T21:01:50.971Z,4.70
2017-11-25T21:04:18.535Z,4.70
2017-11-25T21:06:45.998Z,4.80
2017-11-25T21:09:14.220Z,4.80
2017-11-25T21:11:41.690Z,4.70
2017-11-25T21:14:09.278Z,4.90
2017-11-25T21:16:36.773Z,4.90
2017-11-25T21:19:04.268Z,4.80
2017-11-25T21:21:31.803Z,4.80
2017-11-25T21:23:59.322Z,4.80
2017-11-25T21:26:27.782Z,4.50
2017-11-25T21:28:55.259Z,4.50
2017-11-25T21:31:23.490Z,4.40
2017-11-25T21:33:51.003Z,4.40
2017-11-25T21:36:19.327Z,4.50
2017-11-25T21:38:46.803Z,4.50
2017-11-25T21:41:14.346Z,4.60
2017-11-25T21:43:41.818Z,4.50
2017-11-25T21:46:09.434Z,4.50
2017-11-25T21:48:36.914Z,4.50
2017-11-25T21:51:04.365Z,4.50
2017-11-25T21:53:31.829Z,4.50
2017-11-25T21:55:59.381Z,4.50
2017-11-25T21:58:26.857Z,4.50
2017-11-25T22:00:54.318Z,4.50
2017-11-25T22:03:21.781Z,4.50
2017-11-25T22:05:49.258Z,4.40
2017-11-25T22:08:17.496Z,4.40
2017-11-25T22:10:45.029Z,4.40
2017-11-25T22:13:12.534Z,4.30
2017-11-25T22:15:40.191Z,4.30
2017-11-25T22:18:07.686Z,4.40
2017-11-25T22:20:35.116Z,4.30
2017-11-25T22:23:02.566Z,4.30
2017-11-25T22:25:30.746Z,4.30
2017-11-25T22:27:58.185Z,4.30
2017-11-25T22:30:25.687Z,4.20
2017-11-25T22:32:53.952Z,4.30
2017-11-25T22:35:22.224Z,4.30
2017-11-25T22:37:49.774Z,4.30
2017-11-25T22:40:17.250Z,4.30
2017-11-25T22:42:44.715Z,4.20
2017-11-25T22:45:13.145Z,4.20
2017-11-25T22:47:40.628Z,4.20
2017-11-25T22:50:08.997Z,4.20
2017-11-25T22:52:36.468Z,4.20
2017-11-25T22:55:04.718Z,4.20
2017-11-25T22:57:32.163Z,4.20
2017-11-25T22:59:59.638Z,4.20
2017-11-25T23:02:27.093Z,4.20
2017-11-25T23:04:56.078Z,4.00
2017-11-25T23:07:23.565Z,4.00
2017-11-25T23:09:51.826Z,4.00
2017-11-25T23:12:19.287Z,4.00
2017-11-25T23:14:47.522Z,4.00
2017-11-25T23:17:15.013Z,3.90
2017-11-25T23:19:42.501Z,4.00
2017-11-25T23:22:09.951Z,4.10
2017-11-25T23:24:37.524Z,4.00
2017-11-25T23:27:04.975Z,4.00
2017-11-25T23:29:32.488Z,4.00
2017-11-25T23:31:59.975Z,4.00
2017-11-25T23:34:28.217Z,4.00
2017-11-25T23:36:55.775Z,4.00
2017-11-25T23:39:23.262Z,3.90
2017-11-25T23:41:51.497Z,3.90
2017-11-25T23:44:19.100Z,3.90
2017-11-25T23:46:47.367Z,3.90
2017-11-25T23:49:15.802Z,3.90
2017-11-25T23:51:43.270Z,3.90
2017-11-25T23:54:10.748Z,3.80
2017-11-25T23:56:38.361Z,3.90
2017-11-25T23:59:05.839Z,3.90
